sensor_id;sensor_type;location;lat;lon;timestamp;P1;durP1;ratioP1;P2;durP2;ratioP2
12758;SDS011;20944;47.048;15.390;2023-05-23T00:01:12;5.50;;;3.33;;
12758;SDS011;20944;47.048;15.390;2023-05-23T00:03:42;3.50;;;2.90;;
12758;SDS011;20944;47.048;15.390;2023-05-23T00:06:12;4.80;;;2.90;;
12758;SDS011;20944;47.048;15.390;2023-05-23T00:08:40;4.75;;;3.25;;
12758;SDS011;20944;47.048;15.390;2023-05-23T00:11:08;3.70;;;3.10;;
12758;SDS011;20944;47.048;15.390;2023-05-23T00:13:38;3.55;;;2.85;;
12758;SDS011;20944;47.048;15.390;2023-05-23T00:16:08;4.63;;;3.10;;
12758;SDS011;20944;47.048;15.390;2023-05-23T00:18:37;3.00;;;2.70;;
12758;SDS011;20944;47.048;15.390;2023-05-23T00:21:08;4.07;;;2.85;;
12758;SDS011;20944;47.048;15.390;2023-05-23T00:23:38;2.88;;;2.53;;
12758;SDS011;20944;47.048;15.390;2023-05-23T00:26:07;3.63;;;3.00;;
12758;SDS011;20944;47.048;15.390;2023-05-23T00:28:36;5.43;;;3.15;;
12758;SDS011;20944;47.048;15.390;2023-05-23T00:31:04;3.58;;;2.90;;
12758;SDS011;20944;47.048;15.390;2023-05-23T00:33:32;3.05;;;2.63;;
12758;SDS011;20944;47.048;15.390;2023-05-23T00:36:01;3.63;;;2.58;;
12758;SDS011;20944;47.048;15.390;2023-05-23T00:38:30;3.20;;;2.90;;
12758;SDS011;20944;47.048;15.390;2023-05-23T00:41:00;3.40;;;2.50;;
12758;SDS011;20944;47.048;15.390;2023-05-23T00:43:28;3.97;;;3.15;;
12758;SDS011;20944;47.048;15.390;2023-05-23T00:45:57;3.78;;;3.10;;
12758;SDS011;20944;47.048;15.390;2023-05-23T00:48:26;3.28;;;2.72;;
12758;SDS011;20944;47.048;15.390;2023-05-23T00:50:55;3.58;;;2.78;;
12758;SDS011;20944;47.048;15.390;2023-05-23T00:53:24;4.78;;;2.88;;
12758;SDS011;20944;47.048;15.390;2023-05-23T00:55:53;3.92;;;3.47;;
12758;SDS011;20944;47.048;15.390;2023-05-23T00:58:22;5.75;;;3.22;;
12758;SDS011;20944;47.048;15.390;2023-05-23T01:00:51;4.07;;;2.83;;
12758;SDS011;20944;47.048;15.390;2023-05-23T01:03:21;7.00;;;2.65;;
12758;SDS011;20944;47.048;15.390;2023-05-23T01:05:54;3.83;;;3.17;;
12758;SDS011;20944;47.048;15.390;2023-05-23T01:08:22;3.20;;;2.80;;
12758;SDS011;20944;47.048;15.390;2023-05-23T01:10:50;4.40;;;2.80;;
12758;SDS011;20944;47.048;15.390;2023-05-23T01:13:21;4.80;;;2.95;;
12758;SDS011;20944;47.048;15.390;2023-05-23T01:15:57;3.45;;;2.75;;
12758;SDS011;20944;47.048;15.390;2023-05-23T01:18:31;4.47;;;2.90;;
12758;SDS011;20944;47.048;15.390;2023-05-23T01:21:05;4.40;;;2.75;;
12758;SDS011;20944;47.048;15.390;2023-05-23T01:26:31;4.03;;;3.00;;
12758;SDS011;20944;47.048;15.390;2023-05-23T01:29:10;2.85;;;2.53;;
12758;SDS011;20944;47.048;15.390;2023-05-23T01:31:42;3.72;;;2.60;;
12758;SDS011;20944;47.048;15.390;2023-05-23T01:34:12;3.15;;;2.90;;
12758;SDS011;20944;47.048;15.390;2023-05-23T01:36:42;4.22;;;3.83;;
12758;SDS011;20944;47.048;15.390;2023-05-23T01:39:12;3.38;;;2.70;;
12758;SDS011;20944;47.048;15.390;2023-05-23T01:41:40;3.40;;;3.10;;
12758;SDS011;20944;47.048;15.390;2023-05-23T01:44:09;3.23;;;2.70;;
12758;SDS011;20944;47.048;15.390;2023-05-23T01:46:38;2.95;;;2.53;;
12758;SDS011;20944;47.048;15.390;2023-05-23T01:49:08;4.25;;;3.33;;
12758;SDS011;20944;47.048;15.390;2023-05-23T01:51:38;3.30;;;2.97;;
12758;SDS011;20944;47.048;15.390;2023-05-23T01:54:08;4.28;;;3.17;;
12758;SDS011;20944;47.048;15.390;2023-05-23T01:56:36;4.72;;;3.13;;
12758;SDS011;20944;47.048;15.390;2023-05-23T01:59:05;3.40;;;2.60;;
12758;SDS011;20944;47.048;15.390;2023-05-23T02:01:35;3.27;;;2.60;;
12758;SDS011;20944;47.048;15.390;2023-05-23T02:04:04;3.30;;;3.00;;
12758;SDS011;20944;47.048;15.390;2023-05-23T02:06:32;3.47;;;3.10;;
12758;SDS011;20944;47.048;15.390;2023-05-23T02:09:00;4.38;;;2.97;;
12758;SDS011;20944;47.048;15.390;2023-05-23T02:11:29;5.03;;;3.20;;
12758;SDS011;20944;47.048;15.390;2023-05-23T02:13:57;3.67;;;2.97;;
12758;SDS011;20944;47.048;15.390;2023-05-23T02:16:26;5.25;;;2.67;;
12758;SDS011;20944;47.048;15.390;2023-05-23T02:18:56;5.03;;;3.43;;
12758;SDS011;20944;47.048;15.390;2023-05-23T02:21:24;4.40;;;3.03;;
12758;SDS011;20944;47.048;15.390;2023-05-23T02:23:53;4.33;;;3.23;;
12758;SDS011;20944;47.048;15.390;2023-05-23T02:26:21;5.90;;;3.90;;
12758;SDS011;20944;47.048;15.390;2023-05-23T02:28:50;5.70;;;3.47;;
12758;SDS011;20944;47.048;15.390;2023-05-23T02:31:18;10.30;;;3.37;;
12758;SDS011;20944;47.048;15.390;2023-05-23T02:33:47;4.90;;;3.20;;
12758;SDS011;20944;47.048;15.390;2023-05-23T02:36:16;6.28;;;3.58;;
12758;SDS011;20944;47.048;15.390;2023-05-23T02:38:45;6.65;;;3.55;;
12758;SDS011;20944;47.048;15.390;2023-05-23T02:41:13;3.70;;;3.15;;
12758;SDS011;20944;47.048;15.390;2023-05-23T02:43:41;6.73;;;3.10;;
12758;SDS011;20944;47.048;15.390;2023-05-23T02:46:12;3.33;;;2.97;;
12758;SDS011;20944;47.048;15.390;2023-05-23T02:48:41;4.70;;;3.23;;
12758;SDS011;20944;47.048;15.390;2023-05-23T02:51:09;4.07;;;2.60;;
12758;SDS011;20944;47.048;15.390;2023-05-23T02:53:40;3.22;;;2.90;;
12758;SDS011;20944;47.048;15.390;2023-05-23T02:56:08;6.00;;;3.38;;
12758;SDS011;20944;47.048;15.390;2023-05-23T02:58:37;6.43;;;3.40;;
12758;SDS011;20944;47.048;15.390;2023-05-23T03:01:05;4.80;;;3.03;;
12758;SDS011;20944;47.048;15.390;2023-05-23T03:03:35;3.87;;;3.40;;
12758;SDS011;20944;47.048;15.390;2023-05-23T03:06:03;4.00;;;3.25;;
12758;SDS011;20944;47.048;15.390;2023-05-23T03:08:31;5.10;;;3.87;;
12758;SDS011;20944;47.048;15.390;2023-05-23T03:11:01;3.40;;;3.10;;
12758;SDS011;20944;47.048;15.390;2023-05-23T03:13:29;4.03;;;3.17;;
12758;SDS011;20944;47.048;15.390;2023-05-23T03:15:58;5.13;;;3.20;;
12758;SDS011;20944;47.048;15.390;2023-05-23T03:18:26;4.67;;;3.03;;
12758;SDS011;20944;47.048;15.390;2023-05-23T03:20:55;4.60;;;3.70;;
12758;SDS011;20944;47.048;15.390;2023-05-23T03:23:23;5.37;;;3.40;;
12758;SDS011;20944;47.048;15.390;2023-05-23T03:25:51;4.10;;;3.20;;
12758;SDS011;20944;47.048;15.390;2023-05-23T03:28:21;3.50;;;2.87;;
12758;SDS011;20944;47.048;15.390;2023-05-23T03:30:50;5.07;;;3.07;;
12758;SDS011;20944;47.048;15.390;2023-05-23T03:33:18;6.00;;;3.40;;
12758;SDS011;20944;47.048;15.390;2023-05-23T03:35:46;3.77;;;3.23;;
12758;SDS011;20944;47.048;15.390;2023-05-23T03:38:14;4.33;;;3.20;;
12758;SDS011;20944;47.048;15.390;2023-05-23T03:40:43;5.47;;;4.00;;
12758;SDS011;20944;47.048;15.390;2023-05-23T03:43:11;5.33;;;3.63;;
12758;SDS011;20944;47.048;15.390;2023-05-23T03:45:42;4.20;;;2.77;;
12758;SDS011;20944;47.048;15.390;2023-05-23T03:48:10;7.40;;;4.67;;
12758;SDS011;20944;47.048;15.390;2023-05-23T03:50:39;4.70;;;3.40;;
12758;SDS011;20944;47.048;15.390;2023-05-23T03:53:07;8.63;;;3.40;;
12758;SDS011;20944;47.048;15.390;2023-05-23T03:55:35;4.03;;;2.97;;
12758;SDS011;20944;47.048;15.390;2023-05-23T03:58:04;4.93;;;3.10;;
12758;SDS011;20944;47.048;15.390;2023-05-23T04:00:33;9.20;;;3.83;;
12758;SDS011;20944;47.048;15.390;2023-05-23T04:03:02;4.00;;;3.10;;
12758;SDS011;20944;47.048;15.390;2023-05-23T04:05:31;7.15;;;3.88;;
12758;SDS011;20944;47.048;15.390;2023-05-23T04:07:59;6.97;;;4.17;;
12758;SDS011;20944;47.048;15.390;2023-05-23T04:10:28;6.63;;;4.23;;
12758;SDS011;20944;47.048;15.390;2023-05-23T04:12:56;5.03;;;3.73;;
12758;SDS011;20944;47.048;15.390;2023-05-23T04:15:25;5.75;;;3.30;;
12758;SDS011;20944;47.048;15.390;2023-05-23T04:17:53;4.67;;;3.60;;
12758;SDS011;20944;47.048;15.390;2023-05-23T04:20:23;7.80;;;4.77;;
12758;SDS011;20944;47.048;15.390;2023-05-23T04:22:51;5.45;;;4.45;;
12758;SDS011;20944;47.048;15.390;2023-05-23T04:25:20;9.23;;;4.20;;
12758;SDS011;20944;47.048;15.390;2023-05-23T04:27:48;7.50;;;4.60;;
12758;SDS011;20944;47.048;15.390;2023-05-23T04:30:16;7.50;;;4.30;;
12758;SDS011;20944;47.048;15.390;2023-05-23T04:32:44;7.55;;;4.35;;
12758;SDS011;20944;47.048;15.390;2023-05-23T04:35:13;6.45;;;3.90;;
12758;SDS011;20944;47.048;15.390;2023-05-23T04:37:43;4.72;;;3.97;;
12758;SDS011;20944;47.048;15.390;2023-05-23T04:40:12;11.73;;;4.57;;
12758;SDS011;20944;47.048;15.390;2023-05-23T04:42:41;4.53;;;3.78;;
12758;SDS011;20944;47.048;15.390;2023-05-23T04:45:10;6.70;;;4.55;;
12758;SDS011;20944;47.048;15.390;2023-05-23T04:47:38;5.20;;;4.47;;
12758;SDS011;20944;47.048;15.390;2023-05-23T04:50:07;6.22;;;4.07;;
12758;SDS011;20944;47.048;15.390;2023-05-23T04:52:36;7.10;;;4.60;;
12758;SDS011;20944;47.048;15.390;2023-05-23T04:55:06;6.45;;;4.05;;
12758;SDS011;20944;47.048;15.390;2023-05-23T04:57:35;6.38;;;4.50;;
12758;SDS011;20944;47.048;15.390;2023-05-23T05:00:04;7.07;;;4.68;;
12758;SDS011;20944;47.048;15.390;2023-05-23T05:02:36;4.57;;;4.18;;
12758;SDS011;20944;47.048;15.390;2023-05-23T05:05:06;7.80;;;3.78;;
12758;SDS011;20944;47.048;15.390;2023-05-23T05:07:35;7.88;;;4.85;;
12758;SDS011;20944;47.048;15.390;2023-05-23T05:10:03;6.32;;;4.15;;
12758;SDS011;20944;47.048;15.390;2023-05-23T05:12:34;5.70;;;4.38;;
12758;SDS011;20944;47.048;15.390;2023-05-23T05:15:03;6.15;;;4.57;;
12758;SDS011;20944;47.048;15.390;2023-05-23T05:17:32;8.25;;;4.85;;
12758;SDS011;20944;47.048;15.390;2023-05-23T05:20:02;5.28;;;4.50;;
12758;SDS011;20944;47.048;15.390;2023-05-23T05:22:34;7.57;;;4.97;;
12758;SDS011;20944;47.048;15.390;2023-05-23T05:25:08;5.82;;;4.85;;
12758;SDS011;20944;47.048;15.390;2023-05-23T05:27:38;9.38;;;5.07;;
12758;SDS011;20944;47.048;15.390;2023-05-23T05:30:07;5.80;;;4.53;;
12758;SDS011;20944;47.048;15.390;2023-05-23T05:32:36;8.98;;;4.85;;
12758;SDS011;20944;47.048;15.390;2023-05-23T05:35:05;9.80;;;5.40;;
12758;SDS011;20944;47.048;15.390;2023-05-23T05:37:34;4.65;;;4.13;;
12758;SDS011;20944;47.048;15.390;2023-05-23T05:40:02;9.75;;;7.10;;
12758;SDS011;20944;47.048;15.390;2023-05-23T05:42:35;6.40;;;4.68;;
12758;SDS011;20944;47.048;15.390;2023-05-23T05:45:04;5.07;;;4.43;;
12758;SDS011;20944;47.048;15.390;2023-05-23T05:47:33;4.65;;;4.10;;
12758;SDS011;20944;47.048;15.390;2023-05-23T05:50:02;5.25;;;4.25;;
12758;SDS011;20944;47.048;15.390;2023-05-23T05:52:31;5.50;;;3.97;;
12758;SDS011;20944;47.048;15.390;2023-05-23T05:55:00;5.60;;;3.95;;
12758;SDS011;20944;47.048;15.390;2023-05-23T05:57:28;6.20;;;4.07;;
12758;SDS011;20944;47.048;15.390;2023-05-23T05:59:58;6.03;;;3.85;;
12758;SDS011;20944;47.048;15.390;2023-05-23T06:02:26;4.97;;;3.78;;
12758;SDS011;20944;47.048;15.390;2023-05-23T06:04:54;6.50;;;4.13;;
12758;SDS011;20944;47.048;15.390;2023-05-23T06:07:22;6.03;;;4.20;;
12758;SDS011;20944;47.048;15.390;2023-05-23T06:09:51;4.45;;;3.85;;
12758;SDS011;20944;47.048;15.390;2023-05-23T06:12:19;8.05;;;3.95;;
12758;SDS011;20944;47.048;15.390;2023-05-23T06:14:47;5.43;;;4.25;;
12758;SDS011;20944;47.048;15.390;2023-05-23T06:17:17;6.25;;;4.10;;
12758;SDS011;20944;47.048;15.390;2023-05-23T06:19:45;5.35;;;4.40;;
12758;SDS011;20944;47.048;15.390;2023-05-23T06:22:14;7.10;;;4.32;;
12758;SDS011;20944;47.048;15.390;2023-05-23T06:24:42;7.55;;;4.05;;
12758;SDS011;20944;47.048;15.390;2023-05-23T06:27:10;4.63;;;3.75;;
12758;SDS011;20944;47.048;15.390;2023-05-23T06:29:39;4.78;;;3.97;;
12758;SDS011;20944;47.048;15.390;2023-05-23T06:32:07;4.22;;;3.83;;
12758;SDS011;20944;47.048;15.390;2023-05-23T06:34:36;6.60;;;3.92;;
12758;SDS011;20944;47.048;15.390;2023-05-23T06:37:05;6.07;;;4.47;;
12758;SDS011;20944;47.048;15.390;2023-05-23T06:39:33;5.78;;;4.50;;
12758;SDS011;20944;47.048;15.390;2023-05-23T06:42:01;6.13;;;3.83;;
12758;SDS011;20944;47.048;15.390;2023-05-23T06:44:30;7.28;;;3.70;;
12758;SDS011;20944;47.048;15.390;2023-05-23T06:46:58;5.43;;;4.15;;
12758;SDS011;20944;47.048;15.390;2023-05-23T06:49:26;5.65;;;3.80;;
12758;SDS011;20944;47.048;15.390;2023-05-23T06:51:56;5.90;;;4.30;;
12758;SDS011;20944;47.048;15.390;2023-05-23T06:54:24;9.75;;;4.38;;
12758;SDS011;20944;47.048;15.390;2023-05-23T06:56:52;4.82;;;3.72;;
12758;SDS011;20944;47.048;15.390;2023-05-23T06:59:21;6.05;;;3.80;;
12758;SDS011;20944;47.048;15.390;2023-05-23T07:01:49;5.10;;;3.60;;
12758;SDS011;20944;47.048;15.390;2023-05-23T07:04:17;4.03;;;3.60;;
12758;SDS011;20944;47.048;15.390;2023-05-23T07:06:46;7.05;;;3.95;;
12758;SDS011;20944;47.048;15.390;2023-05-23T07:09:15;4.18;;;3.22;;
12758;SDS011;20944;47.048;15.390;2023-05-23T07:11:44;5.55;;;3.38;;
12758;SDS011;20944;47.048;15.390;2023-05-23T07:14:12;4.85;;;3.47;;
12758;SDS011;20944;47.048;15.390;2023-05-23T07:16:40;6.05;;;3.28;;
12758;SDS011;20944;47.048;15.390;2023-05-23T07:19:08;4.53;;;3.22;;
12758;SDS011;20944;47.048;15.390;2023-05-23T07:21:37;7.28;;;3.42;;
12758;SDS011;20944;47.048;15.390;2023-05-23T07:24:05;7.88;;;3.35;;
12758;SDS011;20944;47.048;15.390;2023-05-23T07:26:35;5.00;;;4.00;;
12758;SDS011;20944;47.048;15.390;2023-05-23T07:29:03;4.28;;;3.53;;
12758;SDS011;20944;47.048;15.390;2023-05-23T07:31:31;5.90;;;3.30;;
12758;SDS011;20944;47.048;15.390;2023-05-23T07:33:59;5.20;;;3.80;;
12758;SDS011;20944;47.048;15.390;2023-05-23T07:36:28;4.57;;;3.47;;
12758;SDS011;20944;47.048;15.390;2023-05-23T07:39:00;3.65;;;3.08;;
12758;SDS011;20944;47.048;15.390;2023-05-23T07:41:28;4.63;;;3.70;;
12758;SDS011;20944;47.048;15.390;2023-05-23T07:43:58;4.05;;;3.65;;
12758;SDS011;20944;47.048;15.390;2023-05-23T07:46:26;3.80;;;3.03;;
12758;SDS011;20944;47.048;15.390;2023-05-23T07:48:54;3.63;;;3.05;;
12758;SDS011;20944;47.048;15.390;2023-05-23T07:51:22;4.15;;;3.30;;
12758;SDS011;20944;47.048;15.390;2023-05-23T07:53:51;4.45;;;4.03;;
12758;SDS011;20944;47.048;15.390;2023-05-23T07:56:19;6.70;;;3.42;;
12758;SDS011;20944;47.048;15.390;2023-05-23T07:58:47;4.50;;;3.40;;
12758;SDS011;20944;47.048;15.390;2023-05-23T08:01:17;4.13;;;3.42;;
12758;SDS011;20944;47.048;15.390;2023-05-23T08:03:45;4.97;;;3.85;;
12758;SDS011;20944;47.048;15.390;2023-05-23T08:06:14;7.20;;;4.25;;
12758;SDS011;20944;47.048;15.390;2023-05-23T08:08:42;4.57;;;3.47;;
12758;SDS011;20944;47.048;15.390;2023-05-23T08:11:10;4.15;;;3.70;;
12758;SDS011;20944;47.048;15.390;2023-05-23T08:13:38;4.57;;;3.58;;
12758;SDS011;20944;47.048;15.390;2023-05-23T08:16:06;4.53;;;3.95;;
12758;SDS011;20944;47.048;15.390;2023-05-23T08:18:36;3.35;;;3.05;;
12758;SDS011;20944;47.048;15.390;2023-05-23T08:21:05;4.13;;;3.58;;
12758;SDS011;20944;47.048;15.390;2023-05-23T08:23:33;6.65;;;3.65;;
12758;SDS011;20944;47.048;15.390;2023-05-23T08:26:01;4.95;;;3.85;;
12758;SDS011;20944;47.048;15.390;2023-05-23T08:28:29;3.35;;;3.15;;
12758;SDS011;20944;47.048;15.390;2023-05-23T08:31:00;6.25;;;3.60;;
12758;SDS011;20944;47.048;15.390;2023-05-23T08:33:28;3.90;;;3.38;;
12758;SDS011;20944;47.048;15.390;2023-05-23T08:35:58;4.15;;;3.75;;
12758;SDS011;20944;47.048;15.390;2023-05-23T08:38:26;4.07;;;3.53;;
12758;SDS011;20944;47.048;15.390;2023-05-23T08:40:54;3.90;;;3.10;;
12758;SDS011;20944;47.048;15.390;2023-05-23T08:43:24;4.10;;;3.42;;
12758;SDS011;20944;47.048;15.390;2023-05-23T08:45:52;4.78;;;3.83;;
12758;SDS011;20944;47.048;15.390;2023-05-23T08:48:21;3.78;;;3.47;;
12758;SDS011;20944;47.048;15.390;2023-05-23T08:50:50;4.35;;;3.25;;
12758;SDS011;20944;47.048;15.390;2023-05-23T08:53:21;3.78;;;3.47;;
12758;SDS011;20944;47.048;15.390;2023-05-23T08:55:53;3.72;;;3.42;;
12758;SDS011;20944;47.048;15.390;2023-05-23T08:58:24;4.25;;;3.85;;
12758;SDS011;20944;47.048;15.390;2023-05-23T09:00:54;3.95;;;3.33;;
12758;SDS011;20944;47.048;15.390;2023-05-23T09:03:23;3.63;;;3.38;;
12758;SDS011;20944;47.048;15.390;2023-05-23T09:05:53;4.95;;;3.42;;
12758;SDS011;20944;47.048;15.390;2023-05-23T09:08:23;3.30;;;3.00;;
12758;SDS011;20944;47.048;15.390;2023-05-23T09:10:51;4.80;;;3.92;;
12758;SDS011;20944;47.048;15.390;2023-05-23T09:13:21;3.47;;;3.20;;
12758;SDS011;20944;47.048;15.390;2023-05-23T09:15:56;5.40;;;3.72;;
12758;SDS011;20944;47.048;15.390;2023-05-23T09:18:32;4.10;;;3.42;;
12758;SDS011;20944;47.048;15.390;2023-05-23T09:21:01;3.75;;;3.45;;
12758;SDS011;20944;47.048;15.390;2023-05-23T09:23:31;3.78;;;3.47;;
12758;SDS011;20944;47.048;15.390;2023-05-23T09:26:01;5.60;;;4.05;;
12758;SDS011;20944;47.048;15.390;2023-05-23T09:28:30;3.97;;;3.67;;
12758;SDS011;20944;47.048;15.390;2023-05-23T09:30:59;3.90;;;3.58;;
12758;SDS011;20944;47.048;15.390;2023-05-23T09:33:33;4.28;;;3.55;;
12758;SDS011;20944;47.048;15.390;2023-05-23T09:36:03;4.32;;;3.67;;
12758;SDS011;20944;47.048;15.390;2023-05-23T09:38:37;3.67;;;3.28;;
12758;SDS011;20944;47.048;15.390;2023-05-23T09:41:06;3.97;;;3.17;;
12758;SDS011;20944;47.048;15.390;2023-05-23T09:43:37;3.78;;;3.58;;
12758;SDS011;20944;47.048;15.390;2023-05-23T09:46:06;3.78;;;3.40;;
12758;SDS011;20944;47.048;15.390;2023-05-23T09:48:36;3.60;;;3.35;;
12758;SDS011;20944;47.048;15.390;2023-05-23T09:51:06;3.80;;;3.50;;
12758;SDS011;20944;47.048;15.390;2023-05-23T09:53:35;5.35;;;3.70;;
12758;SDS011;20944;47.048;15.390;2023-05-23T09:56:05;7.55;;;3.80;;
12758;SDS011;20944;47.048;15.390;2023-05-23T09:58:37;3.22;;;3.03;;
12758;SDS011;20944;47.048;15.390;2023-05-23T10:01:06;4.00;;;3.55;;
12758;SDS011;20944;47.048;15.390;2023-05-23T10:03:43;5.30;;;3.85;;
12758;SDS011;20944;47.048;15.390;2023-05-23T10:06:14;5.53;;;3.80;;
12758;SDS011;20944;47.048;15.390;2023-05-23T10:08:49;4.35;;;3.95;;
12758;SDS011;20944;47.048;15.390;2023-05-23T10:14:49;3.92;;;3.50;;
12758;SDS011;20944;47.048;15.390;2023-05-23T10:17:20;3.80;;;3.33;;
12758;SDS011;20944;47.048;15.390;2023-05-23T10:19:59;5.85;;;3.45;;
12758;SDS011;20944;47.048;15.390;2023-05-23T10:22:34;3.70;;;3.40;;
12758;SDS011;20944;47.048;15.390;2023-05-23T10:25:03;5.13;;;3.88;;
12758;SDS011;20944;47.048;15.390;2023-05-23T10:27:33;5.10;;;3.67;;
12758;SDS011;20944;47.048;15.390;2023-05-23T10:30:02;4.22;;;3.63;;
12758;SDS011;20944;47.048;15.390;2023-05-23T10:32:32;3.50;;;3.20;;
12758;SDS011;20944;47.048;15.390;2023-05-23T10:35:03;4.57;;;3.25;;
12758;SDS011;20944;47.048;15.390;2023-05-23T10:37:39;4.32;;;3.85;;
12758;SDS011;20944;47.048;15.390;2023-05-23T10:40:17;4.50;;;3.53;;
12758;SDS011;20944;47.048;15.390;2023-05-23T10:42:53;4.70;;;4.00;;
12758;SDS011;20944;47.048;15.390;2023-05-23T10:45:28;3.83;;;3.35;;
12758;SDS011;20944;47.048;15.390;2023-05-23T10:47:57;3.70;;;3.40;;
12758;SDS011;20944;47.048;15.390;2023-05-23T10:50:30;3.63;;;3.28;;
12758;SDS011;20944;47.048;15.390;2023-05-23T10:53:00;5.07;;;3.38;;
12758;SDS011;20944;47.048;15.390;2023-05-23T10:55:30;3.80;;;3.50;;
12758;SDS011;20944;47.048;15.390;2023-05-23T10:58:10;3.53;;;3.15;;
12758;SDS011;20944;47.048;15.390;2023-05-23T11:00:41;3.53;;;3.25;;
12758;SDS011;20944;47.048;15.390;2023-05-23T11:03:17;3.70;;;3.35;;
12758;SDS011;20944;47.048;15.390;2023-05-23T11:05:46;3.13;;;3.00;;
12758;SDS011;20944;47.048;15.390;2023-05-23T11:08:15;3.90;;;3.50;;
12758;SDS011;20944;47.048;15.390;2023-05-23T11:10:53;3.33;;;3.03;;
12758;SDS011;20944;47.048;15.390;2023-05-23T11:13:23;2.88;;;2.70;;
12758;SDS011;20944;47.048;15.390;2023-05-23T11:15:52;3.25;;;2.95;;
12758;SDS011;20944;47.048;15.390;2023-05-23T11:18:25;3.38;;;3.10;;
12758;SDS011;20944;47.048;15.390;2023-05-23T11:20:54;3.78;;;3.17;;
12758;SDS011;20944;47.048;15.390;2023-05-23T11:23:28;3.15;;;2.38;;
12758;SDS011;20944;47.048;15.390;2023-05-23T11:28:58;3.00;;;2.38;;
12758;SDS011;20944;47.048;15.390;2023-05-23T11:31:28;4.05;;;2.38;;
12758;SDS011;20944;47.048;15.390;2023-05-23T11:33:57;3.28;;;2.38;;
12758;SDS011;20944;47.048;15.390;2023-05-23T11:36:26;3.00;;;2.80;;
12758;SDS011;20944;47.048;15.390;2023-05-23T11:38:54;3.78;;;3.28;;
12758;SDS011;20944;47.048;15.390;2023-05-23T11:41:23;3.80;;;3.50;;
12758;SDS011;20944;47.048;15.390;2023-05-23T11:43:52;3.55;;;3.25;;
12758;SDS011;20944;47.048;15.390;2023-05-23T11:46:22;3.33;;;3.03;;
12758;SDS011;20944;47.048;15.390;2023-05-23T11:48:50;3.50;;;3.20;;
12758;SDS011;20944;47.048;15.390;2023-05-23T11:51:20;3.28;;;2.95;;
12758;SDS011;20944;47.048;15.390;2023-05-23T11:53:48;4.57;;;2.67;;
12758;SDS011;20944;47.048;15.390;2023-05-23T11:56:17;2.88;;;2.40;;
12758;SDS011;20944;47.048;15.390;2023-05-23T11:58:45;2.17;;;1.90;;
12758;SDS011;20944;47.048;15.390;2023-05-23T12:01:13;2.90;;;1.70;;
12758;SDS011;20944;47.048;15.390;2023-05-23T12:03:46;4.88;;;1.60;;
12758;SDS011;20944;47.048;15.390;2023-05-23T12:06:17;1.30;;;1.23;;
12758;SDS011;20944;47.048;15.390;2023-05-23T12:08:45;1.40;;;1.30;;
12758;SDS011;20944;47.048;15.390;2023-05-23T12:11:14;1.80;;;1.70;;
12758;SDS011;20944;47.048;15.390;2023-05-23T12:13:44;1.90;;;1.80;;
12758;SDS011;20944;47.048;15.390;2023-05-23T12:16:12;1.63;;;1.45;;
12758;SDS011;20944;47.048;15.390;2023-05-23T12:18:41;2.35;;;1.85;;
12758;SDS011;20944;47.048;15.390;2023-05-23T12:21:12;3.40;;;2.17;;
12758;SDS011;20944;47.048;15.390;2023-05-23T12:23:40;2.50;;;2.30;;
12758;SDS011;20944;47.048;15.390;2023-05-23T12:26:08;6.45;;;2.40;;
12758;SDS011;20944;47.048;15.390;2023-05-23T12:28:37;2.53;;;1.70;;
12758;SDS011;20944;47.048;15.390;2023-05-23T12:31:10;3.90;;;2.45;;
12758;SDS011;20944;47.048;15.390;2023-05-23T12:33:39;3.55;;;2.35;;
12758;SDS011;20944;47.048;15.390;2023-05-23T12:36:09;3.28;;;2.40;;
12758;SDS011;20944;47.048;15.390;2023-05-23T12:38:40;3.97;;;2.58;;
12758;SDS011;20944;47.048;15.390;2023-05-23T12:41:11;3.97;;;2.38;;
12758;SDS011;20944;47.048;15.390;2023-05-23T12:43:48;2.65;;;2.10;;
12758;SDS011;20944;47.048;15.390;2023-05-23T12:46:17;3.25;;;2.03;;
12758;SDS011;20944;47.048;15.390;2023-05-23T12:48:45;3.75;;;2.00;;
12758;SDS011;20944;47.048;15.390;2023-05-23T12:51:14;5.10;;;2.22;;
12758;SDS011;20944;47.048;15.390;2023-05-23T12:53:44;4.78;;;2.60;;
12758;SDS011;20944;47.048;15.390;2023-05-23T12:56:12;3.67;;;2.53;;
12758;SDS011;20944;47.048;15.390;2023-05-23T12:58:40;3.53;;;3.22;;
12758;SDS011;20944;47.048;15.390;2023-05-23T13:01:09;3.17;;;2.17;;
12758;SDS011;20944;47.048;15.390;2023-05-23T13:03:37;4.90;;;2.53;;
12758;SDS011;20944;47.048;15.390;2023-05-23T13:06:06;3.00;;;2.35;;
12758;SDS011;20944;47.048;15.390;2023-05-23T13:08:34;2.72;;;2.20;;
12758;SDS011;20944;47.048;15.390;2023-05-23T13:11:04;3.90;;;2.55;;
12758;SDS011;20944;47.048;15.390;2023-05-23T13:13:33;2.65;;;2.28;;
12758;SDS011;20944;47.048;15.390;2023-05-23T13:16:01;2.70;;;2.50;;
12758;SDS011;20944;47.048;15.390;2023-05-23T13:18:29;4.68;;;3.03;;
12758;SDS011;20944;47.048;15.390;2023-05-23T13:20:57;3.33;;;2.30;;
12758;SDS011;20944;47.048;15.390;2023-05-23T13:23:26;4.20;;;2.90;;
12758;SDS011;20944;47.048;15.390;2023-05-23T13:25:54;4.70;;;2.63;;
12758;SDS011;20944;47.048;15.390;2023-05-23T13:28:24;3.88;;;1.95;;
12758;SDS011;20944;47.048;15.390;2023-05-23T13:30:53;5.72;;;2.20;;
12758;SDS011;20944;47.048;15.390;2023-05-23T13:33:21;2.50;;;2.30;;
12758;SDS011;20944;47.048;15.390;2023-05-23T13:35:49;3.03;;;2.20;;
12758;SDS011;20944;47.048;15.390;2023-05-23T13:38:18;2.90;;;1.92;;
12758;SDS011;20944;47.048;15.390;2023-05-23T13:40:50;3.53;;;1.98;;
12758;SDS011;20944;47.048;15.390;2023-05-23T13:43:18;3.40;;;2.20;;
12758;SDS011;20944;47.048;15.390;2023-05-23T13:45:48;2.90;;;2.13;;
12758;SDS011;20944;47.048;15.390;2023-05-23T13:48:16;2.30;;;2.10;;
12758;SDS011;20944;47.048;15.390;2023-05-23T13:50:44;2.17;;;1.95;;
12758;SDS011;20944;47.048;15.390;2023-05-23T13:53:13;2.92;;;2.00;;
12758;SDS011;20944;47.048;15.390;2023-05-23T13:55:42;3.92;;;1.73;;
12758;SDS011;20944;47.048;15.390;2023-05-23T13:58:12;2.60;;;1.98;;
12758;SDS011;20944;47.048;15.390;2023-05-23T14:00:40;2.95;;;2.03;;
12758;SDS011;20944;47.048;15.390;2023-05-23T14:03:10;2.45;;;1.98;;
12758;SDS011;20944;47.048;15.390;2023-05-23T14:05:38;2.45;;;1.92;;
12758;SDS011;20944;47.048;15.390;2023-05-23T14:08:07;2.03;;;1.85;;
12758;SDS011;20944;47.048;15.390;2023-05-23T14:10:36;3.40;;;2.13;;
12758;SDS011;20944;47.048;15.390;2023-05-23T14:13:05;2.60;;;2.25;;
12758;SDS011;20944;47.048;15.390;2023-05-23T14:15:33;2.10;;;1.80;;
12758;SDS011;20944;47.048;15.390;2023-05-23T14:18:04;2.30;;;1.58;;
12758;SDS011;20944;47.048;15.390;2023-05-23T14:20:33;2.20;;;2.03;;
12758;SDS011;20944;47.048;15.390;2023-05-23T14:23:02;3.03;;;2.03;;
12758;SDS011;20944;47.048;15.390;2023-05-23T14:25:30;2.10;;;1.75;;
12758;SDS011;20944;47.048;15.390;2023-05-23T14:27:58;3.72;;;2.25;;
12758;SDS011;20944;47.048;15.390;2023-05-23T14:30:26;1.63;;;1.52;;
12758;SDS011;20944;47.048;15.390;2023-05-23T14:32:54;3.42;;;2.00;;
12758;SDS011;20944;47.048;15.390;2023-05-23T14:35:23;2.75;;;1.67;;
12758;SDS011;20944;47.048;15.390;2023-05-23T14:37:53;2.38;;;1.75;;
12758;SDS011;20944;47.048;15.390;2023-05-23T14:40:21;2.00;;;1.67;;
12758;SDS011;20944;47.048;15.390;2023-05-23T14:42:49;1.83;;;1.60;;
12758;SDS011;20944;47.048;15.390;2023-05-23T14:45:17;1.85;;;1.75;;
12758;SDS011;20944;47.048;15.390;2023-05-23T14:47:46;3.45;;;2.33;;
12758;SDS011;20944;47.048;15.390;2023-05-23T14:50:14;2.95;;;2.15;;
12758;SDS011;20944;47.048;15.390;2023-05-23T14:52:43;3.63;;;2.00;;
12758;SDS011;20944;47.048;15.390;2023-05-23T14:55:12;3.00;;;2.58;;